Airport ICAO


00:47 UTC

-1°C

No significant clouds


An affordable passengers' Moving Map for your aircraft. Made for the iPad and the iPhone
More information here

EGKK Gatwick


London UNITED KINGDOM   VFR


METAR EGKK 230020Z 02004KT 8000 NSC M01/M03 Q1021 0h27min

TAF AMD EGKK 230001Z 2300/2406 08008KT 9999 SCT030 TEMPO 2300/2309 7000 0h46min





NOTAMS

OPEN